Time;durP1;ratioP1;P1;durP2;ratioP2;P2;SDS_P1;SDS_P2;PMS_P1;PMS_P2;Temp;Humidity;BMP_temperature;BMP_pressure;BME280_temperature;BME280_humidity;BME280_pressure;Samples;Min_cycle;Max_cycle;Signal;HPM_P1;HPM_P2
2022/09/13 00:01:12;;;;;;;6.72;2.38;;;;;;;25.18;46.13;100791.09;4935714;29;20027;-70
2022/09/13 00:03:37;;;;;;;3.17;2.08;;;;;;;25.18;45.81;100789.16;4919906;29;20032;-69
2022/09/13 00:06:08;;;;;;;3.92;2.10;;;;;;;25.22;46.18;100795.03;4919794;29;20118;-69
2022/09/13 00:08:33;;;;;;;3.17;2.15;;;;;;;25.25;45.62;100786.34;4919732;29;20055;-70
2022/09/13 00:10:58;;;;;;;5.82;2.45;;;;;;;25.28;45.73;100784.00;4935553;29;20477;-69
2022/09/13 00:13:24;;;;;;;5.55;2.58;;;;;;;25.32;45.90;100787.97;4919646;29;20038;-70
2022/09/13 00:15:49;;;;;;;3.55;2.08;;;;;;;25.35;45.83;100779.28;4935631;29;20487;-71
2022/09/13 00:18:16;;;;;;;5.18;3.28;;;;;;;25.42;45.61;100784.72;4935507;29;20079;-70
2022/09/13 00:20:41;;;;;;;5.78;2.22;;;;;;;25.45;45.77;100784.25;4935592;29;20054;-70
2022/09/13 00:23:07;;;;;;;7.82;2.60;;;;;;;25.54;45.49;100782.94;4935726;29;20106;-70
2022/09/13 00:25:32;;;;;;;10.73;2.55;;;;;;;25.59;45.33;100788.56;4935383;29;20050;-70
2022/09/13 00:27:58;;;;;;;5.10;2.40;;;;;;;25.62;45.83;100777.13;4919687;29;20035;-70
2022/09/13 00:30:23;;;;;;;7.65;3.15;;;;;;;25.67;45.26;100776.44;4935380;29;20038;-70
2022/09/13 00:32:48;;;;;;;9.05;2.88;;;;;;;25.70;45.14;100776.84;4935009;29;20047;-71
2022/09/13 00:35:14;;;;;;;5.25;2.35;;;;;;;25.74;45.32;100777.22;4919349;29;20036;-71
2022/09/13 00:37:39;;;;;;;3.28;2.30;;;;;;;25.80;45.04;100779.88;4936341;29;20036;-71
2022/09/13 00:40:06;;;;;;;5.07;2.33;;;;;;;25.83;45.06;100776.66;4935173;29;20032;-70
2022/09/13 00:42:31;;;;;;;5.63;2.45;;;;;;;25.83;45.18;100765.69;4935349;29;20039;-71
2022/09/13 00:45:09;;;;;;;3.60;1.95;;;;;;;25.87;45.33;100766.06;4918957;29;20032;-71
2022/09/13 00:47:52;;;;;;;5.82;2.40;;;;;;;25.89;45.17;100761.19;4935049;29;20028;-70
2022/09/13 00:50:22;;;;;;;3.38;2.25;;;;;;;25.87;44.85;100766.91;4935312;29;20036;-70
2022/09/13 00:52:57;;;;;;;4.22;2.28;;;;;;;25.91;44.95;100768.09;4934944;29;20031;-70
2022/09/13 00:55:27;;;;;;;5.38;2.40;;;;;;;25.91;45.34;100761.78;4919162;29;20079;-71
2022/09/13 00:57:53;;;;;;;3.22;2.30;;;;;;;25.89;44.91;100759.28;4919214;29;20028;-70
2022/09/13 01:00:18;;;;;;;4.55;1.80;;;;;;;25.87;44.74;100758.69;4919265;29;20035;-70
2022/09/13 01:02:49;;;;;;;5.03;2.33;;;;;;;25.89;44.73;100758.44;4934903;29;20123;-70
2022/09/13 01:05:17;;;;;;;6.43;2.00;;;;;;;25.89;44.61;100759.28;4919062;29;20034;-70
2022/09/13 01:07:43;;;;;;;3.92;2.17;;;;;;;25.87;45.04;100749.59;4934938;29;20028;-70
2022/09/13 01:10:09;;;;;;;3.08;1.73;;;;;;;25.85;44.88;100758.03;4934914;29;20404;-70
2022/09/13 01:13:16;;;;;;;4.78;2.03;;;;;;;25.85;44.82;100760.78;4934816;29;20050;-70
2022/09/13 01:15:42;;;;;;;7.22;1.88;;;;;;;25.86;44.33;100756.16;4935742;29;20414;-70
2022/09/13 01:18:08;;;;;;;2.38;1.90;;;;;;;25.85;44.81;100747.06;4919228;29;20087;-70
2022/09/13 01:21:02;;;;;;;3.90;1.80;;;;;;;25.86;44.34;100753.41;4919087;29;20044;-70
2022/09/13 01:23:45;;;;;;;5.93;1.88;;;;;;;25.84;44.79;100753.66;4936034;29;20034;-71
2022/09/13 01:26:31;;;;;;;3.55;1.60;;;;;;;25.83;45.03;100754.69;4936038;29;20103;-70
2022/09/13 01:29:08;;;;;;;3.08;1.85;;;;;;;25.81;44.72;100751.34;4935869;29;20027;-70
2022/09/13 01:31:37;;;;;;;14.38;2.00;;;;;;;25.77;44.11;100743.78;4935584;29;20206;-69
2022/09/13 01:34:28;;;;;;;4.15;2.00;;;;;;;25.77;44.46;100733.66;4934580;29;20032;-71
2022/09/13 01:37:12;;;;;;;4.75;1.92;;;;;;;25.76;44.06;100731.16;4918856;29;20058;-70
2022/09/13 01:39:48;;;;;;;2.88;1.67;;;;;;;25.73;44.58;100724.22;4935987;29;20053;-71
2022/09/13 01:42:20;;;;;;;2.80;1.52;;;;;;;25.71;44.06;100718.09;4934723;29;20031;-70
2022/09/13 01:45:23;;;;;;;2.70;1.23;;;;;;;25.74;44.24;100717.66;4934610;29;20058;-70
2022/09/13 01:48:00;;;;;;;2.45;1.60;;;;;;;25.72;44.02;100708.81;4908762;29;20683;-70
2022/09/13 01:50:40;;;;;;;2.53;1.75;;;;;;;25.75;44.38;100713.00;4934455;29;20438;-72
2022/09/13 01:53:36;;;;;;;5.47;1.60;;;;;;;25.75;44.24;100704.78;4934412;29;20032;-70
2022/09/13 01:56:42;;;;;;;3.22;1.75;;;;;;;25.72;44.25;100706.06;4937096;29;20031;-70
2022/09/13 01:59:16;;;;;;;1.52;1.17;;;;;;;25.71;44.41;100707.13;4937837;29;20070;-70
2022/09/13 02:02:07;;;;;;;4.35;1.35;;;;;;;25.73;44.11;100705.03;4938070;29;20031;-71
2022/09/13 02:04:37;;;;;;;1.63;1.45;;;;;;;25.74;44.26;100703.13;4937940;29;20054;-70
2022/09/13 02:07:13;;;;;;;2.35;1.35;;;;;;;25.73;44.22;100701.44;4922044;29;20035;-69
2022/09/13 02:09:43;;;;;;;2.75;1.17;;;;;;;25.70;44.62;100700.00;4937693;29;20504;-71
2022/09/13 02:12:19;;;;;;;4.32;1.50;;;;;;;25.70;44.47;100700.00;4937746;29;20398;-71
2022/09/13 02:14:50;;;;;;;2.88;1.80;;;;;;;25.74;44.47;100701.19;4937798;29;20509;-71
2022/09/13 02:17:19;;;;;;;2.90;1.48;;;;;;;25.74;44.25;100705.88;4937721;29;20498;-71
2022/09/13 02:19:52;;;;;;;1.63;1.40;;;;;;;25.74;44.42;100701.19;4937613;29;20027;-71
2022/09/13 02:22:19;;;;;;;;;;;;;;;25.75;44.50;100702.88;4937899;29;20023;-71
2022/09/13 02:24:47;;;;;;;4.70;2.38;;;;;;;25.75;44.86;100702.88;4937550;29;19918;-71
2022/09/13 02:27:17;;;;;;;3.20;1.33;;;;;;;25.75;44.71;100702.88;4937510;29;20035;-72
2022/09/13 02:29:44;;;;;;;2.78;0.95;;;;;;;25.75;44.31;100702.88;4937379;29;20031;-67
2022/09/13 02:32:18;;;;;;;5.22;1.40;;;;;;;25.75;44.21;100694.63;4921232;29;20134;-70
2022/09/13 02:34:50;;;;;;;3.25;1.20;;;;;;;25.73;44.37;100693.19;4921396;29;20035;-70
2022/09/13 02:37:16;;;;;;;;;;;;;;;25.74;44.20;100698.44;4937669;29;20070;-70
2022/09/13 02:39:46;;;;;;;3.13;1.15;;;;;;;25.72;44.49;100695.09;4937384;29;19914;-70
2022/09/13 02:42:16;;;;;;;3.25;1.42;;;;;;;25.73;44.80;100699.53;4921287;29;20024;-71
2022/09/13 02:44:48;;;;;;;3.17;1.40;;;;;;;25.70;44.46;100705.47;4937329;29;20023;-71
2022/09/13 02:47:29;;;;;;;5.07;0.98;;;;;;;25.71;44.55;100712.63;4937324;29;20393;-69
2022/09/13 02:50:19;;;;;;;3.00;0.93;;;;;;;25.70;44.67;100710.13;4937157;29;20059;-70
2022/09/13 02:53:30;;;;;;;3.22;1.20;;;;;;;25.67;45.05;100711.44;4937141;29;20023;-69
2022/09/13 02:56:17;;;;;;;2.33;1.30;;;;;;;25.65;45.08;100702.59;4937857;29;20602;-70
2022/09/13 02:58:56;;;;;;;2.63;1.60;;;;;;;25.63;45.04;100710.19;4936805;29;20024;-70
2022/09/13 03:01:21;;;;;;;2.55;1.67;;;;;;;25.63;44.89;100712.94;4936861;29;20099;-70
2022/09/13 03:03:47;;;;;;;2.03;1.35;;;;;;;25.62;44.96;100718.69;4920872;29;20514;-70
2022/09/13 03:06:12;;;;;;;3.42;1.40;;;;;;;25.63;44.96;100720.34;4920996;29;20020;-70
2022/09/13 03:08:38;;;;;;;2.28;1.52;;;;;;;25.63;44.80;100721.16;4936031;29;20071;-70
2022/09/13 03:11:13;;;;;;;2.83;1.40;;;;;;;25.64;45.05;100711.88;4920834;29;20035;-70
2022/09/13 03:13:55;;;;;;;3.00;1.13;;;;;;;25.66;45.56;100703.41;4937644;29;20023;-70
2022/09/13 03:16:43;;;;;;;1.23;1.08;;;;;;;25.66;44.66;100715.22;4920838;29;20508;-70
2022/09/13 03:19:30;;;;;;;3.53;1.30;;;;;;;25.64;44.94;100716.53;4920755;29;20028;-71
2022/09/13 03:22:06;;;;;;;2.33;1.55;;;;;;;25.61;45.01;100722.47;4936380;29;20035;-70
2022/09/13 03:24:53;;;;;;;5.00;1.70;;;;;;;25.56;45.11;100714.94;4936374;29;20054;-70
2022/09/13 03:27:27;;;;;;;2.25;1.95;;;;;;;25.57;45.56;100721.28;4936370;29;20032;-70
2022/09/13 03:29:58;;;;;;;1.85;1.23;;;;;;;25.55;45.25;100712.41;4936203;29;20035;-70
2022/09/13 03:32:33;;;;;;;4.97;1.33;;;;;;;25.54;45.32;100728.06;4935995;29;20047;-70
2022/09/13 03:35:30;;;;;;;1.40;1.23;;;;;;;25.50;45.64;100713.13;4937340;29;20027;-72
2022/09/13 03:38:06;;;;;;;4.43;1.63;;;;;;;25.48;45.57;100723.50;4936188;29;20111;-70
2022/09/13 03:40:48;;;;;;;6.90;2.08;;;;;;;25.44;45.17;100724.97;4936134;29;20035;-70
2022/09/13 03:43:37;;;;;;;4.43;1.67;;;;;;;25.45;45.54;100721.16;4936171;29;20032;-70
2022/09/13 03:46:13;;;;;;;4.35;1.58;;;;;;;25.42;45.50;100724.38;4937255;29;20028;-70
2022/09/13 03:48:40;;;;;;;4.25;1.55;;;;;;;25.42;45.51;100724.38;4936277;29;20473;-70
2022/09/13 03:51:06;;;;;;;2.60;1.70;;;;;;;25.42;45.13;100724.38;4935912;29;20497;-71
2022/09/13 03:53:35;;;;;;;4.88;1.80;;;;;;;25.41;45.53;100722.69;4920182;29;20118;-70
2022/09/13 03:56:11;;;;;;;3.88;1.35;;;;;;;25.44;45.57;100727.72;4920129;29;20034;-69
2022/09/13 03:58:37;;;;;;;2.55;1.67;;;;;;;25.44;45.28;100728.56;4919829;29;20545;-70
2022/09/13 04:01:02;;;;;;;4.90;1.90;;;;;;;25.48;44.88;100731.72;4935740;29;20107;-70
2022/09/13 04:03:27;;;;;;;4.22;1.98;;;;;;;25.50;44.87;100732.31;4935906;29;20117;-71
2022/09/13 04:05:53;;;;;;;4.88;1.60;;;;;;;25.51;45.34;100734.00;4935487;29;20060;-69
2022/09/13 04:08:18;;;;;;;5.18;1.63;;;;;;;25.55;44.74;100734.34;4919846;29;20106;-70
2022/09/13 04:10:43;;;;;;;7.18;1.42;;;;;;;25.57;45.12;100730.34;4935640;29;20035;-69
2022/09/13 04:13:09;;;;;;;3.58;1.98;;;;;;;25.56;45.25;100723.16;4936736;29;20393;-70
2022/09/13 04:15:34;;;;;;;4.00;1.83;;;;;;;25.57;44.13;100718.53;4919713;29;20036;-70
2022/09/13 04:18:00;;;;;;;2.38;1.27;;;;;;;25.57;45.01;100715.78;4919653;29;20446;-70
2022/09/13 04:20:25;;;;;;;9.98;2.13;;;;;;;25.56;44.98;100717.69;4934469;29;20027;-70
2022/09/13 04:22:54;;;;;;;3.95;1.48;;;;;;;25.56;44.99;100720.44;4935423;29;20106;-71
2022/09/13 04:25:21;;;;;;;4.18;1.67;;;;;;;25.58;44.61;100729.25;4935515;29;20031;-70
2022/09/13 04:27:47;;;;;;;2.30;1.40;;;;;;;25.57;44.66;100713.88;4936538;29;20038;-70
2022/09/13 04:30:12;;;;;;;2.35;1.70;;;;;;;25.59;44.56;100719.13;4935472;29;20035;-70
2022/09/13 04:32:37;;;;;;;7.55;2.15;;;;;;;25.58;45.35;100721.03;4919392;29;20048;-70
2022/09/13 04:35:03;;;;;;;3.83;1.42;;;;;;;25.59;44.97;100719.13;4935231;29;20043;-70
2022/09/13 04:37:29;;;;;;;7.40;1.63;;;;;;;25.59;45.06;100717.22;4919678;29;20469;-69
2022/09/13 04:39:54;;;;;;;3.72;1.63;;;;;;;25.60;44.84;100716.13;4919514;29;20020;-70
2022/09/13 04:42:19;;;;;;;3.50;1.98;;;;;;;25.60;44.54;100718.06;4935132;29;20067;-70
2022/09/13 04:44:45;;;;;;;2.72;1.73;;;;;;;25.58;45.06;100718.28;4935263;29;20031;-70
2022/09/13 04:47:10;;;;;;;4.18;2.40;;;;;;;25.59;45.20;100722.72;4935266;29;20040;-70
2022/09/13 04:49:36;;;;;;;3.20;1.55;;;;;;;25.58;45.18;100715.53;4935355;29;20030;-70
2022/09/13 04:52:02;;;;;;;7.10;1.40;;;;;;;25.65;44.60;100724.53;4936410;29;20107;-70
2022/09/13 04:54:27;;;;;;;2.53;1.50;;;;;;;25.65;44.90;100721.81;4935303;29;20036;-71
2022/09/13 04:56:54;;;;;;;2.97;1.80;;;;;;;25.67;44.85;100718.81;4935360;29;20035;-70
2022/09/13 04:59:19;;;;;;;2.33;1.55;;;;;;;25.67;44.59;100721.56;4935378;29;20036;-72
2022/09/13 05:01:44;;;;;;;2.58;1.52;;;;;;;25.69;44.16;100727.66;4935732;29;20032;-70
2022/09/13 05:04:10;;;;;;;3.53;1.55;;;;;;;25.70;44.71;100721.94;4936421;29;20028;-71
2022/09/13 05:06:39;;;;;;;1.80;1.33;;;;;;;25.74;44.60;100727.81;4919323;29;20028;-70
2022/09/13 05:09:05;;;;;;;3.35;1.73;;;;;;;25.74;44.01;100723.13;4919770;29;20039;-70
2022/09/13 05:11:30;;;;;;;5.20;2.67;;;;;;;25.72;44.14;100708.81;4919390;29;20028;-70
2022/09/13 05:13:58;;;;;;;5.13;1.80;;;;;;;25.74;44.32;100717.66;4919398;29;20031;-70
2022/09/13 05:16:26;;;;;;;5.05;1.88;;;;;;;25.79;44.31;100728.81;4919122;29;20034;-72
2022/09/13 05:18:52;;;;;;;1.35;1.25;;;;;;;25.78;44.05;100723.53;4936053;29;20023;-72
2022/09/13 05:21:18;;;;;;;2.97;1.58;;;;;;;25.80;44.08;100721.38;4919166;29;20062;-70
2022/09/13 05:23:43;;;;;;;4.45;1.52;;;;;;;25.81;44.24;100726.66;4934809;29;20474;-71
2022/09/13 05:26:09;;;;;;;6.03;1.20;;;;;;;25.82;44.30;100725.59;4918933;29;20152;-70
2022/09/13 05:28:35;;;;;;;3.30;1.70;;;;;;;25.80;43.71;100724.97;4934766;29;20378;-72
2022/09/13 05:31:07;;;;;;;1.95;1.75;;;;;;;25.83;43.96;100734.66;4936275;29;20390;-70
2022/09/13 05:33:37;;;;;;;4.00;1.83;;;;;;;25.84;44.07;100744.56;4938484;29;20031;-70
2022/09/13 05:36:04;;;;;;;2.40;1.90;;;;;;;25.83;44.40;100743.72;4939536;29;20032;-70
2022/09/13 05:38:30;;;;;;;5.75;2.05;;;;;;;25.86;43.79;100737.78;4938363;29;20473;-70
2022/09/13 05:40:57;;;;;;;5.20;1.80;;;;;;;25.86;44.07;100735.03;4922602;29;20031;-69
2022/09/13 05:43:24;;;;;;;6.45;1.80;;;;;;;25.87;43.87;100735.88;4922380;29;20448;-70
2022/09/13 05:45:50;;;;;;;7.40;2.00;;;;;;;25.89;44.04;100739.22;4922479;29;20382;-70
2022/09/13 05:48:15;;;;;;;5.43;1.88;;;;;;;25.93;43.92;100738.53;4939373;29;20083;-70
2022/09/13 05:50:40;;;;;;;2.63;1.70;;;;;;;25.95;43.68;100736.41;4938350;29;20034;-71
2022/09/13 05:53:06;;;;;;;7.00;1.77;;;;;;;25.97;43.36;100734.25;4939337;29;20442;-71
2022/09/13 05:55:32;;;;;;;7.82;1.60;;;;;;;25.99;43.91;100734.84;4922579;29;20082;-71
2022/09/13 05:57:58;;;;;;;2.00;1.63;;;;;;;25.98;44.04;100738.69;4922367;29;20043;-70
2022/09/13 06:00:23;;;;;;;2.05;1.23;;;;;;;26.00;44.05;100738.44;4922305;29;20401;-70
2022/09/13 06:02:49;;;;;;;3.47;1.83;;;;;;;26.00;43.71;100731.03;4938357;29;20036;-70
2022/09/13 06:05:14;;;;;;;5.13;1.83;;;;;;;26.03;43.38;100740.72;4938068;29;20036;-71
2022/09/13 06:07:40;;;;;;;2.28;1.85;;;;;;;26.02;43.87;100737.13;4938975;29;20036;-72
2022/09/13 06:10:06;;;;;;;3.60;1.60;;;;;;;26.02;44.02;100737.13;4922130;29;20119;-70
2022/09/13 06:12:32;;;;;;;2.30;1.65;;;;;;;26.04;43.71;100737.75;4937974;29;20035;-70
2022/09/13 06:14:57;;;;;;;6.10;1.70;;;;;;;26.04;43.51;100734.16;4939082;29;20039;-71
2022/09/13 06:17:22;;;;;;;3.78;1.33;;;;;;;26.06;43.79;100732.00;4939047;29;20116;-70
2022/09/13 06:19:48;;;;;;;2.17;1.35;;;;;;;26.05;43.78;100731.16;4938028;29;20119;-70
2022/09/13 06:22:13;;;;;;;3.90;1.65;;;;;;;26.05;43.81;100728.41;4937819;29;20390;-71
2022/09/13 06:24:38;;;;;;;3.75;1.70;;;;;;;26.12;43.43;100738.47;4937768;29;20095;-70
2022/09/13 06:27:04;;;;;;;5.95;1.58;;;;;;;26.09;43.77;100736.19;4937641;29;20036;-70
2022/09/13 06:29:30;;;;;;;8.05;2.67;;;;;;;26.13;43.65;100740.16;4921906;29;20499;-71
2022/09/13 06:31:55;;;;;;;5.10;2.05;;;;;;;26.15;43.81;100738.91;4921569;29;20110;-71
2022/09/13 06:34:20;;;;;;;4.03;1.90;;;;;;;26.21;43.34;100742.63;4938810;29;20497;-71
2022/09/13 06:36:46;;;;;;;5.40;1.90;;;;;;;26.24;43.80;100745.75;4938745;29;20115;-71
2022/09/13 06:39:11;;;;;;;6.50;2.10;;;;;;;26.29;43.46;100747.78;4937517;29;20035;-71
2022/09/13 06:41:37;;;;;;;8.75;2.08;;;;;;;26.32;43.28;100747.31;4936985;29;20035;-71
2022/09/13 06:44:02;;;;;;;5.45;2.08;;;;;;;26.36;43.87;100746.59;4937046;29;20495;-70
2022/09/13 06:46:32;;;;;;;16.35;2.83;;;;;;;26.39;43.62;100732.41;4921550;29;20095;-70
2022/09/13 06:49:00;;;;;;;4.45;1.63;;;;;;;26.48;43.31;100741.13;4938477;29;20171;-70
2022/09/13 06:51:26;;;;;;;6.50;2.10;;;;;;;26.53;43.24;100749.50;4921433;29;20036;-70
2022/09/13 06:53:52;;;;;;;10.63;2.35;;;;;;;26.60;43.63;100750.25;4937459;29;20034;-71
2022/09/13 06:56:20;;;;;;;6.78;2.22;;;;;;;26.66;43.17;100749.31;4937463;29;20035;-70
2022/09/13 06:58:47;;;;;;;8.55;1.80;;;;;;;26.74;43.41;100751.72;4937384;29;20024;-72
2022/09/13 07:01:13;;;;;;;3.97;2.08;;;;;;;26.78;43.54;100743.81;4937120;29;20028;-72
2022/09/13 07:03:43;;;;;;;4.65;1.63;;;;;;;26.82;43.45;100745.06;4937245;29;20030;-73
2022/09/13 07:06:15;;;;;;;2.17;1.30;;;;;;;26.82;44.12;100740.41;4921123;29;20043;-70
2022/09/13 07:08:41;;;;;;;3.20;1.75;;;;;;;26.88;43.34;100736.72;4936860;29;20037;-70
2022/09/13 07:11:08;;;;;;;4.28;1.48;;;;;;;26.91;43.38;100746.38;4937017;29;20055;-70
2022/09/13 07:13:33;;;;;;;5.68;1.67;;;;;;;26.94;42.79;100729.41;4936822;29;20394;-71
2022/09/13 07:16:10;;;;;;;6.45;1.80;;;;;;;26.96;42.68;100738.25;4937157;29;20059;-70
2022/09/13 07:18:36;;;;;;;4.28;1.52;;;;;;;26.99;43.01;100741.38;4936847;29;20083;-70
2022/09/13 07:21:06;;;;;;;8.80;1.95;;;;;;;27.01;43.26;100736.47;4920907;29;20031;-70
2022/09/13 07:23:33;;;;;;;4.32;1.92;;;;;;;27.05;42.83;100726.63;4938260;29;20115;-70
2022/09/13 07:26:04;;;;;;;9.48;2.90;;;;;;;27.09;43.12;100727.84;4920833;29;20493;-72
2022/09/13 07:28:51;;;;;;;5.28;1.73;;;;;;;27.11;42.78;100739.44;4936664;29;20047;-71
2022/09/13 07:31:22;;;;;;;5.00;1.77;;;;;;;27.16;42.88;100739.56;4937768;29;20047;-71
2022/09/13 07:33:53;;;;;;;2.97;1.63;;;;;;;27.21;42.88;100735.25;4936268;29;20055;-70
2022/09/13 07:36:18;;;;;;;2.78;1.75;;;;;;;27.27;42.33;100728.78;4936270;29;20023;-70
2022/09/13 07:38:44;;;;;;;2.55;1.48;;;;;;;27.32;42.81;100732.50;4920437;29;20032;-70
2022/09/13 07:41:18;;;;;;;8.45;2.15;;;;;;;27.43;42.44;100730.84;4936325;29;20031;-70
2022/09/13 07:43:43;;;;;;;7.15;1.65;;;;;;;27.50;42.18;100724.13;4920507;29;20481;-70
2022/09/13 07:46:17;;;;;;;4.70;1.25;;;;;;;27.58;42.00;100731.19;4936009;29;20036;-71
2022/09/13 07:48:44;;;;;;;3.85;1.65;;;;;;;27.74;42.07;100730.41;4920327;29;20027;-72
2022/09/13 07:51:12;;;;;;;6.35;1.85;;;;;;;27.89;42.14;100733.44;4936099;29;20107;-70
2022/09/13 07:53:38;;;;;;;2.10;1.90;;;;;;;28.01;42.10;100720.47;4937000;29;20545;-70
2022/09/13 07:56:13;;;;;;;3.85;1.30;;;;;;;28.18;41.97;100731.56;4936121;29;20027;-71
2022/09/13 07:58:42;;;;;;;6.63;1.65;;;;;;;28.45;42.01;100734.56;4936008;29;20096;-70
2022/09/13 08:01:21;;;;;;;7.60;1.70;;;;;;;28.60;42.10;100737.56;4920079;29;20043;-70
2022/09/13 08:03:57;;;;;;;3.83;1.45;;;;;;;28.75;41.81;100744.22;4936103;29;20039;-70
2022/09/13 08:06:24;;;;;;;5.75;1.55;;;;;;;28.96;41.76;100742.63;4935939;29;20020;-71
2022/09/13 08:08:50;;;;;;;2.63;1.40;;;;;;;29.08;41.07;100743.38;4935761;29;20136;-69
2022/09/13 08:11:20;;;;;;;4.22;2.10;;;;;;;29.21;40.92;100745.75;4937048;29;20453;-71
2022/09/13 08:13:46;;;;;;;3.80;1.27;;;;;;;29.34;40.70;100759.22;4937024;29;20050;-71
2022/09/13 08:16:12;;;;;;;5.00;1.77;;;;;;;29.49;40.97;100763.28;4935898;29;20130;-71
2022/09/13 08:18:44;;;;;;;3.33;1.10;;;;;;;29.62;39.91;100760.19;4935619;29;20031;-72
2022/09/13 08:21:10;;;;;;;5.38;1.42;;;;;;;29.72;40.58;100760.31;4935591;29;20082;-72
2022/09/13 08:23:35;;;;;;;5.80;1.70;;;;;;;29.80;40.38;100763.50;4935617;29;20032;-70
2022/09/13 08:26:02;;;;;;;2.40;1.63;;;;;;;29.88;40.26;100774.09;4935625;29;20031;-70
2022/09/13 08:28:27;;;;;;;7.20;1.52;;;;;;;29.96;39.94;100767.25;4935505;29;20028;-69
2022/09/13 08:30:52;;;;;;;5.45;1.55;;;;;;;30.02;40.73;100771.75;4937022;29;20043;-71
2022/09/13 08:33:18;;;;;;;4.45;2.25;;;;;;;30.09;40.24;100768.81;4935332;29;20056;-70
2022/09/13 08:35:51;;;;;;;2.80;1.83;;;;;;;30.15;40.11;100771.34;4919561;29;20043;-71
2022/09/13 08:38:16;;;;;;;2.47;1.48;;;;;;;30.25;40.03;100770.63;4935333;29;20082;-70
2022/09/13 08:40:50;;;;;;;4.03;1.45;;;;;;;30.32;39.94;100765.75;4919515;29;20035;-70
2022/09/13 08:43:46;;;;;;;3.50;1.42;;;;;;;30.42;39.98;100771.41;4935400;29;20023;-70
2022/09/13 08:46:23;;;;;;;2.30;1.63;;;;;;;30.47;39.58;100775.06;4935535;29;20048;-70
2022/09/13 08:48:51;;;;;;;5.25;1.70;;;;;;;30.52;39.46;100769.56;4919158;29;20082;-70
2022/09/13 08:51:48;;;;;;;2.75;1.92;;;;;;;30.56;39.71;100762.44;4919206;29;20035;-71
2022/09/13 08:54:15;;;;;;;3.13;1.88;;;;;;;30.58;39.46;100749.16;4919719;29;20028;-70
2022/09/13 08:56:47;;;;;;;7.28;1.88;;;;;;;30.74;39.11;100752.09;4919367;29;20485;-70
2022/09/13 08:59:28;;;;;;;6.40;1.90;;;;;;;30.84;39.11;100750.22;4936184;29;20043;-70
2022/09/13 09:02:28;;;;;;;8.00;2.25;;;;;;;31.00;38.99;100757.56;4934845;29;20115;-70
2022/09/13 09:05:12;;;;;;;4.53;1.58;;;;;;;31.08;38.90;100770.06;4934853;29;20394;-71
2022/09/13 09:07:44;;;;;;;10.15;2.47;;;;;;;31.18;38.38;100764.63;4939035;29;20563;-70
2022/09/13 09:10:18;;;;;;;2.25;1.77;;;;;;;31.30;38.70;100768.00;4923040;29;20051;-70
2022/09/13 09:12:57;;;;;;;4.43;1.98;;;;;;;31.43;38.56;100767.56;4938801;29;20490;-70
2022/09/13 09:15:39;;;;;;;3.22;1.88;;;;;;;31.51;38.44;100742.16;4938730;29;20055;-70
2022/09/13 09:18:35;;;;;;;5.25;2.42;;;;;;;31.82;38.52;100770.00;4938645;29;20433;-70
2022/09/13 09:21:02;;;;;;;10.48;1.63;;;;;;;32.21;38.11;100774.91;4938588;29;20040;-71
2022/09/13 09:23:37;;;;;;;2.63;1.90;;;;;;;32.62;36.99;100772.22;4938679;29;20055;-70
2022/09/13 09:26:35;;;;;;;6.53;2.50;;;;;;;32.94;36.64;100760.84;4938602;29;20028;-70
2022/09/13 09:29:18;;;;;;;7.03;1.92;;;;;;;33.25;37.17;100762.50;4938038;29;20050;-70
2022/09/13 09:32:14;;;;;;;6.28;2.80;;;;;;;33.56;37.27;100764.09;4938220;29;20075;-71
2022/09/13 09:35:15;;;;;;;5.20;1.83;;;;;;;33.94;36.53;100760.66;4922716;29;20106;-70
2022/09/13 09:37:41;;;;;;;3.13;2.70;;;;;;;34.08;36.37;100755.31;4922627;29;20552;-70
2022/09/13 09:40:11;;;;;;;10.48;2.50;;;;;;;34.44;36.24;100761.50;4922861;29;20106;-70
2022/09/13 09:42:48;;;;;;;4.32;2.83;;;;;;;35.05;34.64;100759.06;4938661;29;20560;-70
2022/09/13 09:45:22;;;;;;;9.00;2.70;;;;;;;35.69;33.97;100750.34;4938507;29;20386;-70
2022/09/13 09:47:50;;;;;;;5.70;2.55;;;;;;;35.90;33.86;100748.16;4938366;29;20035;-70
2022/09/13 09:50:19;;;;;;;9.25;2.55;;;;;;;35.86;33.84;100736.75;4938442;29;20106;-70
2022/09/13 09:52:56;;;;;;;3.70;2.22;;;;;;;35.83;33.79;100739.28;4922494;29;20020;-70
2022/09/13 09:55:34;;;;;;;3.50;1.70;;;;;;;35.77;34.03;100735.75;4922509;29;20114;-70
2022/09/13 09:58:07;;;;;;;5.25;2.08;;;;;;;35.72;34.05;100733.03;4938186;29;20027;-70
2022/09/13 10:00:55;;;;;;;3.42;1.85;;;;;;;35.67;34.49;100730.31;4938391;29;20027;-70
2022/09/13 10:03:27;;;;;;;3.67;1.85;;;;;;;35.64;33.79;100733.69;4938121;29;20038;-70
2022/09/13 10:06:08;;;;;;;3.47;2.22;;;;;;;35.70;34.24;100732.50;4938050;29;20152;-71
2022/09/13 10:08:36;;;;;;;4.43;1.67;;;;;;;35.63;33.71;100720.88;4939290;29;20063;-70
2022/09/13 10:11:02;;;;;;;2.33;2.13;;;;;;;35.64;34.08;100726.16;4937903;29;20489;-71
2022/09/13 10:13:28;;;;;;;2.83;1.52;;;;;;;35.75;33.71;100729.66;4937853;29;20366;-71
2022/09/13 10:16:01;;;;;;;2.08;1.60;;;;;;;35.73;34.09;100725.50;4922065;29;20119;-71
2022/09/13 10:18:29;;;;;;;2.25;1.65;;;;;;;35.60;34.08;100724.25;4939090;29;20026;-70
2022/09/13 10:21:22;;;;;;;5.97;1.70;;;;;;;35.43;34.19;100723.88;4937894;29;20054;-70
2022/09/13 10:23:52;;;;;;;3.33;1.35;;;;;;;35.23;33.89;100721.31;4939111;29;20423;-71
2022/09/13 10:26:22;;;;;;;6.55;1.45;;;;;;;35.00;34.25;100722.91;4937682;29;20023;-71
2022/09/13 10:28:50;;;;;;;2.38;1.67;;;;;;;34.79;33.66;100722.25;4921817;29;20024;-70
2022/09/13 10:31:17;;;;;;;4.10;1.40;;;;;;;34.65;33.90;100728.81;4938561;29;20031;-70
2022/09/13 10:33:57;;;;;;;4.22;1.67;;;;;;;34.53;34.43;100723.59;4937483;29;20035;-70
2022/09/13 10:36:27;;;;;;;4.18;1.25;;;;;;;34.44;33.99;100708.63;4937675;29;20031;-70
2022/09/13 10:38:59;;;;;;;2.47;1.30;;;;;;;34.47;34.82;100708.03;4938566;29;20055;-71
2022/09/13 10:41:41;;;;;;;2.30;1.60;;;;;;;34.57;34.52;100719.13;4937780;29;20054;-71
2022/09/13 10:44:26;;;;;;;2.03;1.13;;;;;;;35.56;33.12;100700.91;4922152;29;20474;-71
2022/09/13 10:46:52;;;;;;;7.63;1.50;;;;;;;36.79;31.52;100694.06;4938690;29;20505;-71
2022/09/13 10:49:37;;;;;;;2.47;1.58;;;;;;;37.13;31.59;100697.34;4921595;29;20024;-72
2022/09/13 10:52:30;;;;;;;4.53;1.40;;;;;;;37.70;31.48;100686.69;4937430;29;20024;-71
2022/09/13 10:55:18;;;;;;;3.92;1.20;;;;;;;38.67;30.13;100684.13;4938469;29;20087;-71
2022/09/13 10:57:47;;;;;;;4.22;1.20;;;;;;;39.31;30.01;100679.91;4938244;29;20035;-70
2022/09/13 11:00:18;;;;;;;2.08;1.25;;;;;;;40.05;29.88;100686.38;4938235;29;20095;-71
2022/09/13 11:03:24;;;;;;;5.10;1.40;;;;;;;40.76;29.04;100683.25;4921582;29;20406;-71
2022/09/13 11:06:06;;;;;;;2.70;1.17;;;;;;;40.99;28.62;100681.88;4938248;29;20032;-71
2022/09/13 11:08:43;;;;;;;3.72;1.30;;;;;;;41.53;28.02;100675.38;4938210;29;20070;-71
2022/09/13 11:11:27;;;;;;;3.53;1.77;;;;;;;42.05;27.64;100663.78;4936889;29;20031;-71
2022/09/13 11:14:13;;;;;;;2.13;0.95;;;;;;;42.38;27.42;100668.31;4937853;29;20032;-71
2022/09/13 11:17:17;;;;;;;5.55;1.40;;;;;;;42.72;27.06;100661.53;4936689;29;20027;-72
2022/09/13 11:19:51;;;;;;;3.72;1.30;;;;;;;42.67;26.86;100664.56;4937952;29;20023;-71
2022/09/13 11:22:35;;;;;;;2.60;1.30;;;;;;;42.97;26.96;100661.63;4936837;29;20039;-71
2022/09/13 11:25:55;;;;;;;5.00;1.70;;;;;;;43.12;26.23;100663.75;4936751;29;20032;-71
2022/09/13 11:28:52;;;;;;;3.83;1.55;;;;;;;42.92;26.61;100660.63;4919420;29;20404;-71
2022/09/13 11:31:23;;;;;;;4.07;1.20;;;;;;;42.90;26.50;100656.53;4935492;29;20437;-71
2022/09/13 11:34:08;;;;;;;2.15;1.48;;;;;;;42.69;26.46;100659.41;4904066;29;20039;-71
2022/09/13 11:37:06;;;;;;;3.13;1.80;;;;;;;42.57;26.52;100652.94;4919818;29;20116;-71
2022/09/13 11:40:08;;;;;;;2.55;2.03;;;;;;;42.51;26.66;100659.91;4903854;29;20473;-71
2022/09/13 11:42:45;;;;;;;4.72;1.77;;;;;;;42.37;26.43;100663.03;4935615;29;20035;-71
2022/09/13 11:45:36;;;;;;;4.53;1.80;;;;;;;42.21;26.36;100662.88;4935570;29;20035;-71
2022/09/13 11:48:58;;;;;;;3.30;1.65;;;;;;;42.41;26.23;100666.78;4919581;28;20024;-71
2022/09/13 11:51:47;;;;;;;4.38;1.50;;;;;;;42.61;26.16;100663.13;4897511;29;20518;-71